sensor_id;sensor_type;location;lat;lon;timestamp;pressure;altitude;pressure_sealevel;temperature
11792;BMP180;5953;52.372;9.918;2023-06-24T00:01:58;235518.00;;;229.40
11792;BMP180;5953;52.372;9.918;2023-06-24T00:04:27;235518.00;;;229.40
11792;BMP180;5953;52.372;9.918;2023-06-24T00:06:55;235518.00;;;229.40
11792;BMP180;5953;52.372;9.918;2023-06-24T00:09:26;235518.00;;;229.40
11792;BMP180;5953;52.372;9.918;2023-06-24T00:11:54;235518.00;;;229.40
11792;BMP180;5953;52.372;9.918;2023-06-24T00:14:22;235518.00;;;229.40
11792;BMP180;5953;52.372;9.918;2023-06-24T00:16:53;235518.00;;;229.40
11792;BMP180;5953;52.372;9.918;2023-06-24T00:19:22;235518.00;;;229.40
11792;BMP180;5953;52.372;9.918;2023-06-24T00:21:52;235518.00;;;229.40
11792;BMP180;5953;52.372;9.918;2023-06-24T00:24:21;235518.00;;;229.40
11792;BMP180;5953;52.372;9.918;2023-06-24T00:26:52;235518.00;;;229.40
11792;BMP180;5953;52.372;9.918;2023-06-24T00:29:20;235518.00;;;229.40
11792;BMP180;5953;52.372;9.918;2023-06-24T00:31:48;235518.00;;;229.40
11792;BMP180;5953;52.372;9.918;2023-06-24T00:34:16;235518.00;;;229.40
11792;BMP180;5953;52.372;9.918;2023-06-24T00:36:46;235518.00;;;229.40
11792;BMP180;5953;52.372;9.918;2023-06-24T00:39:15;235518.00;;;229.40
11792;BMP180;5953;52.372;9.918;2023-06-24T00:41:43;235518.00;;;229.40
11792;BMP180;5953;52.372;9.918;2023-06-24T00:44:11;235518.00;;;229.40
11792;BMP180;5953;52.372;9.918;2023-06-24T00:46:39;235518.00;;;229.40
11792;BMP180;5953;52.372;9.918;2023-06-24T00:49:07;235518.00;;;229.40
11792;BMP180;5953;52.372;9.918;2023-06-24T00:51:35;235518.00;;;229.40
11792;BMP180;5953;52.372;9.918;2023-06-24T00:54:03;235518.00;;;229.40
11792;BMP180;5953;52.372;9.918;2023-06-24T00:56:34;235518.00;;;229.40
11792;BMP180;5953;52.372;9.918;2023-06-24T00:59:06;235518.00;;;229.40
11792;BMP180;5953;52.372;9.918;2023-06-24T01:01:35;235518.00;;;229.40
11792;BMP180;5953;52.372;9.918;2023-06-24T01:04:03;235518.00;;;229.40
11792;BMP180;5953;52.372;9.918;2023-06-24T01:06:32;235518.00;;;229.40
11792;BMP180;5953;52.372;9.918;2023-06-24T01:09:00;235518.00;;;229.40
11792;BMP180;5953;52.372;9.918;2023-06-24T01:11:30;235518.00;;;229.40
11792;BMP180;5953;52.372;9.918;2023-06-24T01:13:59;235518.00;;;229.40
11792;BMP180;5953;52.372;9.918;2023-06-24T01:16:33;235518.00;;;229.40
11792;BMP180;5953;52.372;9.918;2023-06-24T01:19:19;235518.00;;;229.40
11792;BMP180;5953;52.372;9.918;2023-06-24T01:21:58;235518.00;;;229.40
11792;BMP180;5953;52.372;9.918;2023-06-24T01:24:48;235518.00;;;229.40
11792;BMP180;5953;52.372;9.918;2023-06-24T01:27:37;235518.00;;;229.40
11792;BMP180;5953;52.372;9.918;2023-06-24T01:30:28;235518.00;;;229.40
11792;BMP180;5953;52.372;9.918;2023-06-24T01:33:04;235518.00;;;229.40
11792;BMP180;5953;52.372;9.918;2023-06-24T01:35:36;235518.00;;;229.40
11792;BMP180;5953;52.372;9.918;2023-06-24T01:38:08;235518.00;;;229.40
11792;BMP180;5953;52.372;9.918;2023-06-24T01:40:39;235518.00;;;229.40
11792;BMP180;5953;52.372;9.918;2023-06-24T01:43:09;235518.00;;;229.40
11792;BMP180;5953;52.372;9.918;2023-06-24T01:45:40;235518.00;;;229.40
11792;BMP180;5953;52.372;9.918;2023-06-24T01:48:13;235518.00;;;229.40
11792;BMP180;5953;52.372;9.918;2023-06-24T01:50:44;235518.00;;;229.40
11792;BMP180;5953;52.372;9.918;2023-06-24T01:53:13;235518.00;;;229.40
11792;BMP180;5953;52.372;9.918;2023-06-24T01:55:42;235518.00;;;229.40
11792;BMP180;5953;52.372;9.918;2023-06-24T01:58:11;235518.00;;;229.40
11792;BMP180;5953;52.372;9.918;2023-06-24T02:00:41;235518.00;;;229.40
11792;BMP180;5953;52.372;9.918;2023-06-24T02:03:11;235518.00;;;229.40
11792;BMP180;5953;52.372;9.918;2023-06-24T02:05:41;235518.00;;;229.40
11792;BMP180;5953;52.372;9.918;2023-06-24T02:08:11;235518.00;;;229.40
11792;BMP180;5953;52.372;9.918;2023-06-24T02:10:40;235518.00;;;229.40
11792;BMP180;5953;52.372;9.918;2023-06-24T02:13:10;235518.00;;;229.40
11792;BMP180;5953;52.372;9.918;2023-06-24T02:15:39;235518.00;;;229.40
11792;BMP180;5953;52.372;9.918;2023-06-24T02:18:08;235518.00;;;229.40
11792;BMP180;5953;52.372;9.918;2023-06-24T02:20:38;235518.00;;;229.40
11792;BMP180;5953;52.372;9.918;2023-06-24T02:23:08;235518.00;;;229.40
11792;BMP180;5953;52.372;9.918;2023-06-24T02:25:38;235518.00;;;229.40
11792;BMP180;5953;52.372;9.918;2023-06-24T02:28:07;235518.00;;;229.40
11792;BMP180;5953;52.372;9.918;2023-06-24T02:30:37;235518.00;;;229.40
11792;BMP180;5953;52.372;9.918;2023-06-24T02:33:05;235518.00;;;229.40
11792;BMP180;5953;52.372;9.918;2023-06-24T02:35:33;235518.00;;;229.40
11792;BMP180;5953;52.372;9.918;2023-06-24T02:38:03;235518.00;;;229.40
11792;BMP180;5953;52.372;9.918;2023-06-24T02:40:31;235518.00;;;229.40
11792;BMP180;5953;52.372;9.918;2023-06-24T02:42:59;235518.00;;;229.40
11792;BMP180;5953;52.372;9.918;2023-06-24T02:45:29;235518.00;;;229.40
11792;BMP180;5953;52.372;9.918;2023-06-24T02:47:58;235518.00;;;229.40
11792;BMP180;5953;52.372;9.918;2023-06-24T02:50:27;235518.00;;;229.40
11792;BMP180;5953;52.372;9.918;2023-06-24T02:52:55;235518.00;;;229.40
11792;BMP180;5953;52.372;9.918;2023-06-24T02:55:25;235518.00;;;229.40
11792;BMP180;5953;52.372;9.918;2023-06-24T02:57:54;235518.00;;;229.40
11792;BMP180;5953;52.372;9.918;2023-06-24T03:00:23;235518.00;;;229.40
11792;BMP180;5953;52.372;9.918;2023-06-24T03:02:52;235518.00;;;229.40
11792;BMP180;5953;52.372;9.918;2023-06-24T03:05:21;235518.00;;;229.40
11792;BMP180;5953;52.372;9.918;2023-06-24T03:07:52;235518.00;;;229.40
11792;BMP180;5953;52.372;9.918;2023-06-24T03:10:20;235518.00;;;229.40
11792;BMP180;5953;52.372;9.918;2023-06-24T03:12:52;235518.00;;;229.40
11792;BMP180;5953;52.372;9.918;2023-06-24T03:15:20;235518.00;;;229.40
11792;BMP180;5953;52.372;9.918;2023-06-24T03:17:48;235518.00;;;229.40
11792;BMP180;5953;52.372;9.918;2023-06-24T03:20:15;235518.00;;;229.40
11792;BMP180;5953;52.372;9.918;2023-06-24T03:22:43;235518.00;;;229.40
11792;BMP180;5953;52.372;9.918;2023-06-24T03:25:11;235518.00;;;229.40
11792;BMP180;5953;52.372;9.918;2023-06-24T03:27:39;235518.00;;;229.40
11792;BMP180;5953;52.372;9.918;2023-06-24T03:30:11;235518.00;;;229.40
11792;BMP180;5953;52.372;9.918;2023-06-24T03:32:41;235518.00;;;229.40
11792;BMP180;5953;52.372;9.918;2023-06-24T03:35:14;235518.00;;;229.40
11792;BMP180;5953;52.372;9.918;2023-06-24T03:37:42;235518.00;;;229.40
11792;BMP180;5953;52.372;9.918;2023-06-24T03:40:10;235518.00;;;229.40
11792;BMP180;5953;52.372;9.918;2023-06-24T03:42:38;235518.00;;;229.40
11792;BMP180;5953;52.372;9.918;2023-06-24T03:45:08;235518.00;;;229.40
11792;BMP180;5953;52.372;9.918;2023-06-24T03:47:36;235518.00;;;229.40
11792;BMP180;5953;52.372;9.918;2023-06-24T03:50:05;235518.00;;;229.40
11792;BMP180;5953;52.372;9.918;2023-06-24T03:52:33;235518.00;;;229.40
11792;BMP180;5953;52.372;9.918;2023-06-24T03:55:01;235518.00;;;229.40
11792;BMP180;5953;52.372;9.918;2023-06-24T03:57:31;235518.00;;;229.40
11792;BMP180;5953;52.372;9.918;2023-06-24T03:59:59;235518.00;;;229.40
11792;BMP180;5953;52.372;9.918;2023-06-24T04:02:29;235518.00;;;229.40
11792;BMP180;5953;52.372;9.918;2023-06-24T04:04:56;235518.00;;;229.40
11792;BMP180;5953;52.372;9.918;2023-06-24T04:07:24;235518.00;;;229.40
11792;BMP180;5953;52.372;9.918;2023-06-24T04:09:55;235518.00;;;229.40
11792;BMP180;5953;52.372;9.918;2023-06-24T04:12:24;235518.00;;;229.40
11792;BMP180;5953;52.372;9.918;2023-06-24T04:14:51;235518.00;;;229.40
11792;BMP180;5953;52.372;9.918;2023-06-24T04:17:19;235518.00;;;229.40
11792;BMP180;5953;52.372;9.918;2023-06-24T04:19:48;235518.00;;;229.40
11792;BMP180;5953;52.372;9.918;2023-06-24T04:22:16;235518.00;;;229.40
11792;BMP180;5953;52.372;9.918;2023-06-24T04:24:44;235518.00;;;229.40
11792;BMP180;5953;52.372;9.918;2023-06-24T04:27:11;235518.00;;;229.40
11792;BMP180;5953;52.372;9.918;2023-06-24T04:29:39;235518.00;;;229.40
11792;BMP180;5953;52.372;9.918;2023-06-24T04:32:07;235518.00;;;229.40
11792;BMP180;5953;52.372;9.918;2023-06-24T04:34:35;235518.00;;;229.40
11792;BMP180;5953;52.372;9.918;2023-06-24T04:37:04;235518.00;;;229.40
11792;BMP180;5953;52.372;9.918;2023-06-24T04:39:32;235518.00;;;229.40
11792;BMP180;5953;52.372;9.918;2023-06-24T04:42:00;235518.00;;;229.40
11792;BMP180;5953;52.372;9.918;2023-06-24T04:44:28;235518.00;;;229.40
11792;BMP180;5953;52.372;9.918;2023-06-24T04:46:56;235518.00;;;229.40
11792;BMP180;5953;52.372;9.918;2023-06-24T04:49:24;235518.00;;;229.40
11792;BMP180;5953;52.372;9.918;2023-06-24T04:51:51;235518.00;;;229.40
11792;BMP180;5953;52.372;9.918;2023-06-24T04:54:21;235518.00;;;229.40
11792;BMP180;5953;52.372;9.918;2023-06-24T04:56:48;235518.00;;;229.40
11792;BMP180;5953;52.372;9.918;2023-06-24T04:59:18;235518.00;;;229.40
11792;BMP180;5953;52.372;9.918;2023-06-24T05:01:45;235518.00;;;229.40
11792;BMP180;5953;52.372;9.918;2023-06-24T05:04:13;235518.00;;;229.40
11792;BMP180;5953;52.372;9.918;2023-06-24T05:06:41;235518.00;;;229.40
11792;BMP180;5953;52.372;9.918;2023-06-24T05:09:09;235518.00;;;229.40
11792;BMP180;5953;52.372;9.918;2023-06-24T05:11:41;235518.00;;;229.40
11792;BMP180;5953;52.372;9.918;2023-06-24T05:14:09;235518.00;;;229.40
11792;BMP180;5953;52.372;9.918;2023-06-24T05:16:37;235518.00;;;229.40
11792;BMP180;5953;52.372;9.918;2023-06-24T05:19:04;235518.00;;;229.40
11792;BMP180;5953;52.372;9.918;2023-06-24T05:21:32;235518.00;;;229.40
11792;BMP180;5953;52.372;9.918;2023-06-24T05:24:00;235518.00;;;229.40
11792;BMP180;5953;52.372;9.918;2023-06-24T05:26:28;235518.00;;;229.40
11792;BMP180;5953;52.372;9.918;2023-06-24T05:28:57;235518.00;;;229.40
11792;BMP180;5953;52.372;9.918;2023-06-24T05:31:25;235518.00;;;229.40
11792;BMP180;5953;52.372;9.918;2023-06-24T05:33:52;235518.00;;;229.40
11792;BMP180;5953;52.372;9.918;2023-06-24T05:36:20;235518.00;;;229.40
11792;BMP180;5953;52.372;9.918;2023-06-24T05:38:48;235518.00;;;229.40
11792;BMP180;5953;52.372;9.918;2023-06-24T05:41:16;235518.00;;;229.40
11792;BMP180;5953;52.372;9.918;2023-06-24T05:43:43;235518.00;;;229.40
11792;BMP180;5953;52.372;9.918;2023-06-24T05:46:12;235518.00;;;229.40
11792;BMP180;5953;52.372;9.918;2023-06-24T05:48:40;235518.00;;;229.40
11792;BMP180;5953;52.372;9.918;2023-06-24T05:51:08;235518.00;;;229.40
11792;BMP180;5953;52.372;9.918;2023-06-24T05:53:36;235518.00;;;229.40
11792;BMP180;5953;52.372;9.918;2023-06-24T05:56:04;235518.00;;;229.40
11792;BMP180;5953;52.372;9.918;2023-06-24T05:58:32;235518.00;;;229.40
11792;BMP180;5953;52.372;9.918;2023-06-24T06:00:59;235518.00;;;229.40
11792;BMP180;5953;52.372;9.918;2023-06-24T06:03:29;235518.00;;;229.40
11792;BMP180;5953;52.372;9.918;2023-06-24T06:05:57;235518.00;;;229.40
11792;BMP180;5953;52.372;9.918;2023-06-24T06:08:25;235518.00;;;229.40
11792;BMP180;5953;52.372;9.918;2023-06-24T06:10:52;235518.00;;;229.40
11792;BMP180;5953;52.372;9.918;2023-06-24T06:13:20;235518.00;;;229.40
11792;BMP180;5953;52.372;9.918;2023-06-24T06:15:48;235518.00;;;229.40
11792;BMP180;5953;52.372;9.918;2023-06-24T06:18:15;235518.00;;;229.40
11792;BMP180;5953;52.372;9.918;2023-06-24T06:20:44;235518.00;;;229.40
11792;BMP180;5953;52.372;9.918;2023-06-24T06:23:12;235518.00;;;229.40
11792;BMP180;5953;52.372;9.918;2023-06-24T06:25:40;235518.00;;;229.40
11792;BMP180;5953;52.372;9.918;2023-06-24T06:28:08;235518.00;;;229.40
11792;BMP180;5953;52.372;9.918;2023-06-24T06:30:36;235518.00;;;229.40
11792;BMP180;5953;52.372;9.918;2023-06-24T06:33:03;235518.00;;;229.40
11792;BMP180;5953;52.372;9.918;2023-06-24T06:35:31;235518.00;;;229.40
11792;BMP180;5953;52.372;9.918;2023-06-24T06:38:01;235518.00;;;229.40
11792;BMP180;5953;52.372;9.918;2023-06-24T06:40:29;235518.00;;;229.40
11792;BMP180;5953;52.372;9.918;2023-06-24T06:42:56;235518.00;;;229.40
11792;BMP180;5953;52.372;9.918;2023-06-24T06:45:24;235518.00;;;229.40
11792;BMP180;5953;52.372;9.918;2023-06-24T06:47:52;235518.00;;;229.40
11792;BMP180;5953;52.372;9.918;2023-06-24T06:50:20;235518.00;;;229.40
11792;BMP180;5953;52.372;9.918;2023-06-24T06:52:47;235518.00;;;229.40
11792;BMP180;5953;52.372;9.918;2023-06-24T06:55:16;235518.00;;;229.40
11792;BMP180;5953;52.372;9.918;2023-06-24T06:57:44;235518.00;;;229.40
11792;BMP180;5953;52.372;9.918;2023-06-24T07:00:12;235518.00;;;229.40
11792;BMP180;5953;52.372;9.918;2023-06-24T07:02:40;235518.00;;;229.40
11792;BMP180;5953;52.372;9.918;2023-06-24T07:05:08;235518.00;;;229.40
11792;BMP180;5953;52.372;9.918;2023-06-24T07:07:36;235518.00;;;229.40
11792;BMP180;5953;52.372;9.918;2023-06-24T07:10:05;235518.00;;;229.40
11792;BMP180;5953;52.372;9.918;2023-06-24T07:12:34;235518.00;;;229.40
11792;BMP180;5953;52.372;9.918;2023-06-24T07:15:03;235518.00;;;229.40
11792;BMP180;5953;52.372;9.918;2023-06-24T07:17:31;235518.00;;;229.40
11792;BMP180;5953;52.372;9.918;2023-06-24T07:19:59;235518.00;;;229.40
11792;BMP180;5953;52.372;9.918;2023-06-24T07:22:27;235518.00;;;229.40
11792;BMP180;5953;52.372;9.918;2023-06-24T07:24:56;235518.00;;;229.40
11792;BMP180;5953;52.372;9.918;2023-06-24T07:27:24;235518.00;;;229.40
11792;BMP180;5953;52.372;9.918;2023-06-24T07:30:49;101719.00;;;25.70
11792;BMP180;5953;52.372;9.918;2023-06-24T07:33:19;101714.00;;;25.80
11792;BMP180;5953;52.372;9.918;2023-06-24T07:35:47;101753.00;;;25.80
11792;BMP180;5953;52.372;9.918;2023-06-24T07:38:22;101727.00;;;26.30
11792;BMP180;5953;52.372;9.918;2023-06-24T07:40:52;101726.00;;;26.20
11792;BMP180;5953;52.372;9.918;2023-06-24T07:43:20;101762.00;;;26.60
11792;BMP180;5953;52.372;9.918;2023-06-24T07:45:50;101750.00;;;26.90
11792;BMP180;5953;52.372;9.918;2023-06-24T07:48:18;101731.00;;;26.60
11792;BMP180;5953;52.372;9.918;2023-06-24T07:50:49;101748.00;;;26.80
11792;BMP180;5953;52.372;9.918;2023-06-24T07:53:17;101743.00;;;26.80
11792;BMP180;5953;52.372;9.918;2023-06-24T07:55:45;101742.00;;;27.50
11792;BMP180;5953;52.372;9.918;2023-06-24T07:58:24;101745.00;;;27.60
11792;BMP180;5953;52.372;9.918;2023-06-24T08:00:54;101742.00;;;27.40
11792;BMP180;5953;52.372;9.918;2023-06-24T08:03:22;101731.00;;;27.00
11792;BMP180;5953;52.372;9.918;2023-06-24T08:05:52;101754.00;;;27.60
11792;BMP180;5953;52.372;9.918;2023-06-24T08:08:23;101760.00;;;27.90
11792;BMP180;5953;52.372;9.918;2023-06-24T08:10:51;101750.00;;;27.60
11792;BMP180;5953;52.372;9.918;2023-06-24T08:13:19;101751.00;;;27.70
11792;BMP180;5953;52.372;9.918;2023-06-24T08:15:47;101725.00;;;27.60
11792;BMP180;5953;52.372;9.918;2023-06-24T08:18:19;101747.00;;;27.20
11792;BMP180;5953;52.372;9.918;2023-06-24T08:20:47;101743.00;;;27.20
11792;BMP180;5953;52.372;9.918;2023-06-24T08:23:16;101737.00;;;27.60
11792;BMP180;5953;52.372;9.918;2023-06-24T08:25:44;101716.00;;;28.10
11792;BMP180;5953;52.372;9.918;2023-06-24T08:28:14;101728.00;;;28.40
11792;BMP180;5953;52.372;9.918;2023-06-24T08:30:47;101738.00;;;28.70
11792;BMP180;5953;52.372;9.918;2023-06-24T08:33:15;101716.00;;;29.00
11792;BMP180;5953;52.372;9.918;2023-06-24T08:35:47;101717.00;;;29.30
11792;BMP180;5953;52.372;9.918;2023-06-24T08:38:17;101747.00;;;29.10
11792;BMP180;5953;52.372;9.918;2023-06-24T08:44:37;101715.00;;;29.50
11792;BMP180;5953;52.372;9.918;2023-06-24T08:47:07;101720.00;;;29.90
11792;BMP180;5953;52.372;9.918;2023-06-24T08:49:40;101738.00;;;29.60
11792;BMP180;5953;52.372;9.918;2023-06-24T08:52:18;101744.00;;;29.80
11792;BMP180;5953;52.372;9.918;2023-06-24T08:54:51;101728.00;;;29.60
11792;BMP180;5953;52.372;9.918;2023-06-24T08:57:27;101705.00;;;29.60
11792;BMP180;5953;52.372;9.918;2023-06-24T09:03:41;101707.00;;;29.50
11792;BMP180;5953;52.372;9.918;2023-06-24T09:06:10;101728.00;;;29.40
11792;BMP180;5953;52.372;9.918;2023-06-24T09:08:40;101719.00;;;29.40
11792;BMP180;5953;52.372;9.918;2023-06-24T09:11:08;101732.00;;;29.20
11792;BMP180;5953;52.372;9.918;2023-06-24T09:13:37;101722.00;;;29.20
11792;BMP180;5953;52.372;9.918;2023-06-24T09:16:12;101718.00;;;29.60
11792;BMP180;5953;52.372;9.918;2023-06-24T09:18:41;101723.00;;;29.90
11792;BMP180;5953;52.372;9.918;2023-06-24T09:21:21;101724.00;;;29.50
11792;BMP180;5953;52.372;9.918;2023-06-24T09:23:52;101728.00;;;29.90
11792;BMP180;5953;52.372;9.918;2023-06-24T09:26:23;101730.00;;;29.70
11792;BMP180;5953;52.372;9.918;2023-06-24T09:28:51;101725.00;;;30.10
11792;BMP180;5953;52.372;9.918;2023-06-24T09:31:22;101716.00;;;30.30
11792;BMP180;5953;52.372;9.918;2023-06-24T09:33:51;101716.00;;;30.00
11792;BMP180;5953;52.372;9.918;2023-06-24T09:36:19;101713.00;;;30.20
11792;BMP180;5953;52.372;9.918;2023-06-24T09:38:48;101708.00;;;30.00
11792;BMP180;5953;52.372;9.918;2023-06-24T09:41:18;101714.00;;;29.60
11792;BMP180;5953;52.372;9.918;2023-06-24T09:43:46;101698.00;;;30.00
11792;BMP180;5953;52.372;9.918;2023-06-24T09:46:14;101712.00;;;30.20
11792;BMP180;5953;52.372;9.918;2023-06-24T09:48:44;101716.00;;;30.60
11792;BMP180;5953;52.372;9.918;2023-06-24T09:51:13;101707.00;;;30.70
11792;BMP180;5953;52.372;9.918;2023-06-24T09:53:43;101695.00;;;30.90
11792;BMP180;5953;52.372;9.918;2023-06-24T09:56:13;101697.00;;;31.30
11792;BMP180;5953;52.372;9.918;2023-06-24T09:58:45;101689.00;;;30.00
11792;BMP180;5953;52.372;9.918;2023-06-24T10:01:14;101702.00;;;30.70
11792;BMP180;5953;52.372;9.918;2023-06-24T10:03:46;101674.00;;;30.20
11792;BMP180;5953;52.372;9.918;2023-06-24T10:06:15;101691.00;;;30.50
11792;BMP180;5953;52.372;9.918;2023-06-24T10:08:43;101709.00;;;31.00
11792;BMP180;5953;52.372;9.918;2023-06-24T10:11:11;101678.00;;;30.80
11792;BMP180;5953;52.372;9.918;2023-06-24T10:13:41;101696.00;;;30.60
11792;BMP180;5953;52.372;9.918;2023-06-24T10:16:11;101679.00;;;31.10
11792;BMP180;5953;52.372;9.918;2023-06-24T10:18:49;101686.00;;;31.30
11792;BMP180;5953;52.372;9.918;2023-06-24T10:21:18;101699.00;;;31.10
11792;BMP180;5953;52.372;9.918;2023-06-24T10:23:59;101680.00;;;31.20
11792;BMP180;5953;52.372;9.918;2023-06-24T10:26:31;101674.00;;;31.50
11792;BMP180;5953;52.372;9.918;2023-06-24T10:29:12;101686.00;;;31.40
11792;BMP180;5953;52.372;9.918;2023-06-24T10:31:53;101693.00;;;31.20
11792;BMP180;5953;52.372;9.918;2023-06-24T10:34:33;101698.00;;;31.40
11792;BMP180;5953;52.372;9.918;2023-06-24T10:37:08;101697.00;;;31.20
11792;BMP180;5953;52.372;9.918;2023-06-24T10:39:51;101670.00;;;31.20
11792;BMP180;5953;52.372;9.918;2023-06-24T10:42:36;101687.00;;;31.30
11792;BMP180;5953;52.372;9.918;2023-06-24T10:45:31;101665.00;;;31.20
11792;BMP180;5953;52.372;9.918;2023-06-24T10:48:13;101660.00;;;31.30
11792;BMP180;5953;52.372;9.918;2023-06-24T10:50:54;101661.00;;;31.40
11792;BMP180;5953;52.372;9.918;2023-06-24T10:53:37;101669.00;;;31.60
11792;BMP180;5953;52.372;9.918;2023-06-24T10:59:00;101663.00;;;31.10
11792;BMP180;5953;52.372;9.918;2023-06-24T11:04:16;101658.00;;;31.70
11792;BMP180;5953;52.372;9.918;2023-06-24T11:06:56;101654.00;;;31.80
11792;BMP180;5953;52.372;9.918;2023-06-24T11:09:24;101646.00;;;31.60
11792;BMP180;5953;52.372;9.918;2023-06-24T11:11:52;101654.00;;;31.90
11792;BMP180;5953;52.372;9.918;2023-06-24T11:14:20;101649.00;;;32.20
11792;BMP180;5953;52.372;9.918;2023-06-24T11:16:48;101642.00;;;32.30
11792;BMP180;5953;52.372;9.918;2023-06-24T11:19:18;101651.00;;;32.30
11792;BMP180;5953;52.372;9.918;2023-06-24T11:21:46;101642.00;;;31.60
11792;BMP180;5953;52.372;9.918;2023-06-24T11:24:14;101645.00;;;31.90
11792;BMP180;5953;52.372;9.918;2023-06-24T11:26:41;101639.00;;;31.50
11792;BMP180;5953;52.372;9.918;2023-06-24T11:29:10;101633.00;;;31.80
11792;BMP180;5953;52.372;9.918;2023-06-24T11:31:38;101629.00;;;32.10
11792;BMP180;5953;52.372;9.918;2023-06-24T11:34:05;101643.00;;;31.80
11792;BMP180;5953;52.372;9.918;2023-06-24T11:36:36;101627.00;;;31.80
11792;BMP180;5953;52.372;9.918;2023-06-24T11:39:03;101620.00;;;32.00
11792;BMP180;5953;52.372;9.918;2023-06-24T11:41:31;101627.00;;;32.30
11792;BMP180;5953;52.372;9.918;2023-06-24T11:43:59;101628.00;;;32.40
11792;BMP180;5953;52.372;9.918;2023-06-24T11:46:28;101632.00;;;32.30
11792;BMP180;5953;52.372;9.918;2023-06-24T11:49:03;101624.00;;;31.90
11792;BMP180;5953;52.372;9.918;2023-06-24T11:51:31;101621.00;;;32.20
11792;BMP180;5953;52.372;9.918;2023-06-24T11:54:02;101618.00;;;32.50
11792;BMP180;5953;52.372;9.918;2023-06-24T11:56:34;101614.00;;;32.80
11792;BMP180;5953;52.372;9.918;2023-06-24T11:59:04;101619.00;;;32.90
11792;BMP180;5953;52.372;9.918;2023-06-24T12:01:33;101621.00;;;32.70
11792;BMP180;5953;52.372;9.918;2023-06-24T12:04:09;101617.00;;;32.40
11792;BMP180;5953;52.372;9.918;2023-06-24T12:06:37;101615.00;;;32.30
11792;BMP180;5953;52.372;9.918;2023-06-24T12:09:06;101607.00;;;32.30
11792;BMP180;5953;52.372;9.918;2023-06-24T12:11:37;101606.00;;;32.50
11792;BMP180;5953;52.372;9.918;2023-06-24T12:14:05;101612.00;;;32.60
11792;BMP180;5953;52.372;9.918;2023-06-24T12:16:33;101620.00;;;32.60
11792;BMP180;5953;52.372;9.918;2023-06-24T12:19:02;101605.00;;;32.20
11792;BMP180;5953;52.372;9.918;2023-06-24T12:21:30;101612.00;;;32.20
11792;BMP180;5953;52.372;9.918;2023-06-24T12:23:58;101608.00;;;32.50
11792;BMP180;5953;52.372;9.918;2023-06-24T12:26:27;101616.00;;;32.50
11792;BMP180;5953;52.372;9.918;2023-06-24T12:28:56;101617.00;;;32.30
11792;BMP180;5953;52.372;9.918;2023-06-24T12:31:24;101618.00;;;32.20
11792;BMP180;5953;52.372;9.918;2023-06-24T12:33:52;101608.00;;;32.40
11792;BMP180;5953;52.372;9.918;2023-06-24T12:36:21;101597.00;;;32.60
11792;BMP180;5953;52.372;9.918;2023-06-24T12:38:49;101607.00;;;32.10
11792;BMP180;5953;52.372;9.918;2023-06-24T12:41:16;101606.00;;;32.10
11792;BMP180;5953;52.372;9.918;2023-06-24T12:43:46;101603.00;;;31.80
11792;BMP180;5953;52.372;9.918;2023-06-24T12:46:14;101591.00;;;32.00
11792;BMP180;5953;52.372;9.918;2023-06-24T12:48:41;101599.00;;;31.70
11792;BMP180;5953;52.372;9.918;2023-06-24T12:51:10;101595.00;;;31.70
11792;BMP180;5953;52.372;9.918;2023-06-24T12:53:38;101596.00;;;32.00
11792;BMP180;5953;52.372;9.918;2023-06-24T12:56:05;101590.00;;;31.80
11792;BMP180;5953;52.372;9.918;2023-06-24T12:58:35;101598.00;;;31.90
11792;BMP180;5953;52.372;9.918;2023-06-24T13:01:04;101594.00;;;31.90
11792;BMP180;5953;52.372;9.918;2023-06-24T13:03:32;101594.00;;;31.70
11792;BMP180;5953;52.372;9.918;2023-06-24T13:06:00;101592.00;;;31.50
11792;BMP180;5953;52.372;9.918;2023-06-24T13:08:28;101590.00;;;31.60
11792;BMP180;5953;52.372;9.918;2023-06-24T13:10:56;101595.00;;;31.50
11792;BMP180;5953;52.372;9.918;2023-06-24T13:13:24;101587.00;;;31.40
11792;BMP180;5953;52.372;9.918;2023-06-24T13:15:52;101593.00;;;31.30
11792;BMP180;5953;52.372;9.918;2023-06-24T13:18:21;101597.00;;;31.40
11792;BMP180;5953;52.372;9.918;2023-06-24T13:20:48;101586.00;;;31.80
11792;BMP180;5953;52.372;9.918;2023-06-24T13:23:26;101584.00;;;31.90
11792;BMP180;5953;52.372;9.918;2023-06-24T13:25:53;101575.00;;;32.00
11792;BMP180;5953;52.372;9.918;2023-06-24T13:28:21;101588.00;;;32.10
11792;BMP180;5953;52.372;9.918;2023-06-24T13:30:49;101580.00;;;32.10
11792;BMP180;5953;52.372;9.918;2023-06-24T13:33:22;101575.00;;;31.50
11792;BMP180;5953;52.372;9.918;2023-06-24T13:35:50;101578.00;;;31.70
11792;BMP180;5953;52.372;9.918;2023-06-24T13:38:18;101580.00;;;32.00
11792;BMP180;5953;52.372;9.918;2023-06-24T13:40:47;101579.00;;;32.10
11792;BMP180;5953;52.372;9.918;2023-06-24T13:43:14;101585.00;;;32.20
11792;BMP180;5953;52.372;9.918;2023-06-24T13:45:42;101582.00;;;32.30
11792;BMP180;5953;52.372;9.918;2023-06-24T13:48:10;101579.00;;;32.30
11792;BMP180;5953;52.372;9.918;2023-06-24T13:50:39;101583.00;;;32.40
11792;BMP180;5953;52.372;9.918;2023-06-24T13:53:07;101585.00;;;32.60
11792;BMP180;5953;52.372;9.918;2023-06-24T13:55:34;101587.00;;;32.70
11792;BMP180;5953;52.372;9.918;2023-06-24T13:58:03;101574.00;;;32.50
11792;BMP180;5953;52.372;9.918;2023-06-24T14:00:30;101588.00;;;32.30
11792;BMP180;5953;52.372;9.918;2023-06-24T14:02:58;101570.00;;;32.20
11792;BMP180;5953;52.372;9.918;2023-06-24T14:05:26;101568.00;;;32.40
11792;BMP180;5953;52.372;9.918;2023-06-24T14:07:55;101569.00;;;32.30
11792;BMP180;5953;52.372;9.918;2023-06-24T14:10:23;101567.00;;;32.60
11792;BMP180;5953;52.372;9.918;2023-06-24T14:12:51;101562.00;;;32.90
11792;BMP180;5953;52.372;9.918;2023-06-24T14:15:19;101566.00;;;32.80
11792;BMP180;5953;52.372;9.918;2023-06-24T14:17:46;101561.00;;;32.60
11792;BMP180;5953;52.372;9.918;2023-06-24T14:20:14;101555.00;;;32.70
11792;BMP180;5953;52.372;9.918;2023-06-24T14:22:42;101559.00;;;32.70
11792;BMP180;5953;52.372;9.918;2023-06-24T14:25:12;101559.00;;;32.70
11792;BMP180;5953;52.372;9.918;2023-06-24T14:27:40;101559.00;;;32.40
11792;BMP180;5953;52.372;9.918;2023-06-24T14:30:08;101552.00;;;32.60